»·PEaware :: N370BC KPHX-KBLH

N370BC :: KPHX-KBLH

FLIGHT INFORMATION

Flight Status: Arrived
Operator: Privately registered:
United States
More flights under this callsign
Pilot: Drew L. (13237)
Aircraft: BOEING 737-200
(B732)
More flights by this aircraft type
Origin: KPHX Phoenix Sky Harbor Intl
United States
Destination: KBLH Blythe
United States
More flights between these airports :: More routes between these airports
Route: +BXK4 BLH
File this flight plan on PilotEdge
Remarks:
Altitude:
(Current/Filed)
20,000ft
Speed:
(Current/Filed)
0kts
Departed: 20-Jul-18 05:06 PM
Arrived: 20-Jul-18 05:38 PM
Distance/Time
Traveled:
136nm/0:32
Distance/Time
To Go:
Arrived

Flight Plot

Page will automatically refresh every two minutes.

Flight plan parsing failed; only flown route is shown


Map Options




Map Legend


Flown Route
Filed Route
Departure Airport
Arrival Airport
Navaid (VOR, NDB)
Fix

Horizontal Profiles

Position Reports

Time Latitude Longitude Heading Altitude Ground
Speed
20-Jul-18 16:08 33.425770 -112.019526 270 1143ft 0kts
20-Jul-18 16:09 33.425770 -112.019526 270 1143ft 0kts
20-Jul-18 16:10 33.425770 -112.019526 270 1143ft 0kts
20-Jul-18 16:11 33.425770 -112.019526 270 1143ft 0kts
20-Jul-18 16:12 33.425770 -112.019526 270 1143ft 0kts
20-Jul-18 16:13 33.425770 -112.019526 270 1143ft 0kts
20-Jul-18 16:14 33.425770 -112.019526 270 1143ft 0kts
20-Jul-18 16:15 33.425770 -112.019526 270 1143ft 0kts
20-Jul-18 16:16 33.425770 -112.019526 270 1143ft 0kts
20-Jul-18 16:17 33.425770 -112.019526 270 1143ft 0kts
20-Jul-18 16:18 33.425770 -112.019526 270 1143ft 0kts
20-Jul-18 16:19 33.425770 -112.019526 270 1143ft 0kts
20-Jul-18 16:20 33.425770 -112.019526 270 1143ft 0kts
20-Jul-18 16:21 33.425770 -112.019526 270 1143ft 0kts
20-Jul-18 16:22 33.425770 -112.019526 270 1143ft 0kts
20-Jul-18 16:23 33.425770 -112.019526 270 1143ft 0kts
20-Jul-18 16:24 33.425770 -112.019526 270 1143ft 0kts
20-Jul-18 16:25 33.425770 -112.019526 270 1143ft 0kts
20-Jul-18 16:26 33.425770 -112.019526 270 1143ft 0kts
20-Jul-18 16:27 33.425770 -112.019526 270 1143ft 0kts
20-Jul-18 16:28 33.425770 -112.019526 270 1143ft 0kts
20-Jul-18 16:29 33.425770 -112.019526 270 1143ft 0kts
20-Jul-18 16:30 33.425770 -112.019526 270 1143ft 0kts
20-Jul-18 16:31 33.425770 -112.019526 270 1143ft 0kts
20-Jul-18 16:32 33.425770 -112.019526 270 1143ft 0kts
20-Jul-18 16:33 33.425770 -112.019526 270 1143ft 0kts
20-Jul-18 16:34 33.425770 -112.019526 270 1143ft 0kts
20-Jul-18 16:35 33.425770 -112.019526 270 1143ft 0kts
20-Jul-18 16:36 33.425770 -112.019526 270 1143ft 0kts
20-Jul-18 16:37 33.425770 -112.019526 270 1143ft 0kts
20-Jul-18 16:38 33.425770 -112.019526 270 1143ft 0kts
20-Jul-18 16:39 33.425770 -112.019526 270 1143ft 0kts
20-Jul-18 16:40 33.425770 -112.019526 270 1143ft 0kts
20-Jul-18 16:41 33.425770 -112.019526 270 1143ft 0kts
20-Jul-18 16:42 33.425770 -112.019526 270 1143ft 0kts
20-Jul-18 16:43 33.425770 -112.019526 270 1143ft 0kts
20-Jul-18 16:44 33.425770 -112.019526 270 1143ft 0kts
20-Jul-18 16:45 33.425770 -112.019526 270 1143ft 0kts
20-Jul-18 16:46 33.425770 -112.019526 270 1143ft 0kts
20-Jul-18 16:47 33.425770 -112.019526 270 1143ft 0kts
20-Jul-18 16:48 33.425770 -112.019526 270 1143ft 0kts
20-Jul-18 16:49 33.425770 -112.019526 270 1143ft 0kts
20-Jul-18 16:50 33.425770 -112.019526 270 1143ft 0kts
20-Jul-18 16:51 33.425770 -112.019526 270 1143ft 0kts
20-Jul-18 16:52 33.425770 -112.019526 269 1143ft 0kts
20-Jul-18 16:53 33.425770 -112.019526 270 1143ft 0kts
20-Jul-18 16:54 33.426257 -112.020725 302 1143ft 9kts
20-Jul-18 16:55 33.427500 -112.021127 6 1143ft 7kts
20-Jul-18 16:56 33.427791 -112.016862 66 1143ft 0kts
20-Jul-18 16:57 33.427794 -112.016853 65 1143ft 0kts
20-Jul-18 16:58 33.429950 -112.014278 90 1143ft 22kts
20-Jul-18 16:59 33.429934 -112.005037 89 1143ft 27kts
20-Jul-18 17:00 33.429887 -112.002046 112 1143ft 0kts
20-Jul-18 17:01 33.429887 -112.002046 112 1143ft 0kts
20-Jul-18 17:02 33.429887 -112.002046 112 1143ft 0kts
20-Jul-18 17:03 33.429887 -112.002046 112 1143ft 0kts
20-Jul-18 17:04 33.429887 -112.002046 112 1143ft 0kts
20-Jul-18 17:05 33.429887 -112.002046 112 1143ft 0kts
20-Jul-18 17:06 33.429574 -112.001737 165 1143ft 11kts
20-Jul-18 17:07 33.428877 -112.025289 269 1212ft 160kts
20-Jul-18 17:08 33.422675 -112.084230 250 3040ft 209kts
20-Jul-18 17:09 33.417961 -112.150854 289 5858ft 214kts
20-Jul-18 17:10 33.438010 -112.218620 273 8374ft 222kts
20-Jul-18 17:11 33.434173 -112.293593 259 10661ft 233kts
20-Jul-18 17:12 33.438755 -112.371370 278 12726ft 244kts
20-Jul-18 17:13 33.445737 -112.466648 273 12956ft 328kts
20-Jul-18 17:14 33.449384 -112.578577 272 14962ft 339kts
20-Jul-18 17:15 33.451429 -112.691930 270 16814ft 347kts
20-Jul-18 17:16 33.453029 -112.807555 270 18475ft 354kts
20-Jul-18 17:17 33.452886 -112.926428 270 19806ft 366kts
20-Jul-18 17:18 33.460288 -113.051664 272 19862ft 385kts
20-Jul-18 17:19 33.470787 -113.181119 273 19864ft 396kts
20-Jul-18 17:20 33.481989 -113.313083 273 19864ft 401kts
20-Jul-18 17:21 33.493231 -113.446695 273 19863ft 403kts
20-Jul-18 17:22 33.504296 -113.580415 273 19857ft 404kts
20-Jul-18 17:23 33.514864 -113.710561 272 19785ft 378kts
20-Jul-18 17:24 33.524394 -113.830238 273 18297ft 363kts
20-Jul-18 17:25 33.533894 -113.948645 273 16616ft 354kts
20-Jul-18 17:26 33.543168 -114.064798 273 14959ft 345kts
20-Jul-18 17:27 33.551875 -114.174939 273 13928ft 314kts
20-Jul-18 17:28 33.559921 -114.278488 273 12341ft 309kts
20-Jul-18 17:29 33.567593 -114.378907 273 11316ft 285kts
20-Jul-18 17:30 33.574245 -114.466771 273 10762ft 248kts
20-Jul-18 17:31 33.583761 -114.548101 275 9442ft 242kts
20-Jul-18 17:32 33.586597 -114.628079 266 7882ft 232kts
20-Jul-18 17:33 33.584558 -114.705458 265 5723ft 232kts
20-Jul-18 17:34 33.582724 -114.777261 265 4063ft 215kts
20-Jul-18 17:35 33.589547 -114.842824 319 4025ft 210kts
20-Jul-18 17:36 33.630094 -114.816469 99 3429ft 207kts
20-Jul-18 17:37 33.616928 -114.758774 90 1271ft 167kts
20-Jul-18 17:38 33.616565 -114.712636 88 406ft 92kts
20-Jul-18 17:39 33.615148 -114.708281 268 406ft 23kts
20-Jul-18 17:40 33.614648 -114.712560 178 406ft 4kts
20-Jul-18 17:41 33.614457 -114.712717 0 406ft 0kts
20-Jul-18 17:42 33.614457 -114.712717 0 406ft 0kts
20-Jul-18 17:43 33.614457 -114.712717 0 406ft 0kts
20-Jul-18 17:44 33.614457 -114.712717 0 406ft 0kts
20-Jul-18 17:45 33.614457 -114.712717 0 406ft 0kts
20-Jul-18 17:46 33.614457 -114.712717 0 406ft 0kts
20-Jul-18 17:47 33.614457 -114.712717 0 406ft 0kts
20-Jul-18 17:48 33.614457 -114.712717 0 406ft 0kts
20-Jul-18 17:49 33.614457 -114.712717 0 406ft 0kts
20-Jul-18 17:50 33.614457 -114.712717 0 406ft 0kts
20-Jul-18 17:51 33.614457 -114.712717 0 406ft 0kts
20-Jul-18 17:52 33.614457 -114.712717 0 406ft 0kts
20-Jul-18 17:53 33.614457 -114.712717 0 406ft 0kts
20-Jul-18 17:54 33.614457 -114.712717 0 406ft 0kts

Navigation Log

Ident Type
Flight plan parsing failed, navigation log unavailable